createdAt,value
2022-12-18T00:00:33.975Z,99202.19
2022-12-18T00:03:02.474Z,99183.59
2022-12-18T00:05:31.050Z,99178.53
2022-12-18T00:08:02.988Z,99175.16
2022-12-18T00:10:39.350Z,99171.06
2022-12-18T00:13:10.052Z,99156.56
2022-12-18T00:15:42.166Z,99162.47
2022-12-18T00:18:13.788Z,99164.16
2022-12-18T00:20:46.820Z,99146.19
2022-12-18T00:23:15.263Z,99151.25
2022-12-18T00:25:45.055Z,99148.75
2022-12-18T00:28:13.623Z,99136.81
2022-12-18T00:30:42.085Z,99128.28
2022-12-18T00:33:10.461Z,99129.47
2022-12-18T00:35:41.004Z,99134.31
2022-12-18T00:38:09.475Z,99122.38
2022-12-18T00:40:37.945Z,99110.25
2022-12-18T00:43:06.767Z,99120.69
2022-12-18T00:45:38.230Z,99123.28
2022-12-18T00:48:07.333Z,99119.75
2022-12-18T00:50:38.399Z,99125.78
2022-12-18T00:53:06.893Z,99114.94
2022-12-18T00:55:39.797Z,99109.47
2022-12-18T00:58:11.757Z,99108.84
2022-12-18T01:00:40.560Z,99100.81
2022-12-18T01:03:15.579Z,99092.13
2022-12-18T01:05:46.493Z,99098.56
2022-12-18T01:08:15.110Z,99082.44
2022-12-18T01:10:45.545Z,99094.34
2022-12-18T01:13:18.329Z,99076.34
2022-12-18T01:15:50.853Z,99082.44
2022-12-18T01:18:19.251Z,99051.53
2022-12-18T01:20:47.587Z,99059.63
2022-12-18T01:23:15.990Z,99075.53
2022-12-18T01:25:44.458Z,99056.25
2022-12-18T01:28:12.844Z,99065.16
2022-12-18T01:30:44.195Z,99051.53
2022-12-18T01:33:12.575Z,99058.25
2022-12-18T01:35:43.417Z,99077.06
2022-12-18T01:38:12.042Z,99072.19
2022-12-18T01:40:43.012Z,99048.25
2022-12-18T01:43:12.054Z,99062.56
2022-12-18T01:45:43.821Z,99052.19
2022-12-18T01:48:16.085Z,99062.13
2022-12-18T01:50:51.248Z,99070.03
2022-12-18T01:53:23.066Z,99064.97
2022-12-18T01:55:55.305Z,99060.50
2022-12-18T01:58:28.226Z,99065.16
2022-12-18T02:01:01.446Z,99077.63
2022-12-18T02:03:31.242Z,99071.56
2022-12-18T02:06:03.244Z,99053.59
2022-12-18T02:08:36.859Z,99063.19
2022-12-18T02:11:11.102Z,99070.50
2022-12-18T02:13:48.099Z,99063.72
2022-12-18T02:16:24.879Z,99054.41
2022-12-18T02:19:02.362Z,99070.47
2022-12-18T02:21:37.998Z,99086.53
2022-12-18T02:24:18.159Z,99077.16
2022-12-18T02:26:53.569Z,99085.69
2022-12-18T02:29:28.528Z,99080.69
2022-12-18T02:32:06.862Z,99075.63
2022-12-18T02:34:37.468Z,99071.50
2022-12-18T02:37:09.469Z,99053.25
2022-12-18T02:39:40.970Z,99060.69
2022-12-18T02:42:15.675Z,99070.50
2022-12-18T02:44:48.716Z,99071.44
2022-12-18T02:47:24.053Z,99076.56
2022-12-18T02:50:00.160Z,99073.25
2022-12-18T02:52:37.521Z,99094.59
2022-12-18T02:55:17.032Z,99072.47
2022-12-18T02:57:56.566Z,99070.00
2022-12-18T03:00:33.408Z,99069.59
2022-12-18T03:03:07.525Z,99065.00
2022-12-18T03:05:40.189Z,99087.47
2022-12-18T03:08:11.295Z,99025.25
2022-12-18T03:10:45.139Z,99062.16
2022-12-18T03:13:17.570Z,99046.94
2022-12-18T03:15:48.582Z,99059.41
2022-12-18T03:18:20.435Z,99067.88
2022-12-18T03:20:50.235Z,99062.00
2022-12-18T03:23:26.424Z,99060.16
2022-12-18T03:26:01.877Z,99051.06
2022-12-18T03:28:36.643Z,99037.63
2022-12-18T03:31:07.561Z,99059.22
2022-12-18T03:33:41.011Z,99073.59
2022-12-18T03:36:10.286Z,99092.00
2022-12-18T03:38:39.841Z,99101.25
2022-12-18T03:41:17.826Z,99057.38
2022-12-18T03:44:12.621Z,99078.47
2022-12-18T03:46:49.689Z,99065.56
2022-12-18T03:49:23.754Z,99073.31
2022-12-18T03:51:55.557Z,99068.75
2022-12-18T03:54:24.546Z,99072.06
2022-12-18T03:57:05.102Z,99066.94
2022-12-18T03:59:37.798Z,99054.00
2022-12-18T04:02:09.583Z,99064.41
2022-12-18T04:04:42.542Z,99078.78
2022-12-18T04:07:10.941Z,99077.84
2022-12-18T04:09:41.558Z,99064.78
2022-12-18T04:12:10.970Z,99077.72
2022-12-18T04:14:41.301Z,99081.09
2022-12-18T04:17:11.371Z,99086.03
2022-12-18T04:19:39.811Z,99092.88
2022-12-18T04:22:11.882Z,99110.50
2022-12-18T04:24:45.200Z,99125.72
2022-12-18T04:27:24.524Z,99096.66
2022-12-18T04:29:54.520Z,99128.53
2022-12-18T04:32:24.765Z,99114.75
2022-12-18T04:34:53.350Z,99134.97
2022-12-18T04:37:25.260Z,99119.53
2022-12-18T04:39:54.123Z,99137.50
2022-12-18T04:42:29.020Z,99138.28
2022-12-18T04:44:58.693Z,99159.28
2022-12-18T04:47:27.070Z,99156.53
2022-12-18T04:49:55.485Z,99168.31
2022-12-18T04:52:26.751Z,99169.06
2022-12-18T04:54:55.066Z,99156.88
2022-12-18T04:57:25.612Z,99128.72
2022-12-18T04:59:54.122Z,99125.13
2022-12-18T05:02:23.956Z,99140.63
2022-12-18T05:04:52.361Z,99124.94
2022-12-18T05:07:20.739Z,99154.34
2022-12-18T05:09:49.077Z,99153.00
2022-12-18T05:12:17.420Z,99152.25
2022-12-18T05:14:48.464Z,99157.16
2022-12-18T05:17:16.840Z,99135.88
2022-12-18T05:19:47.841Z,99133.38
2022-12-18T05:22:18.090Z,99145.53
2022-12-18T05:24:46.638Z,99175.97
2022-12-18T05:27:15.001Z,99177.81
2022-12-18T05:29:45.251Z,99190.22
2022-12-18T05:32:15.227Z,99203.69
2022-12-18T05:34:43.950Z,99197.72
2022-12-18T05:37:13.849Z,99200.97
2022-12-18T05:39:42.257Z,99218.63
2022-12-18T05:42:11.264Z,99190.63
2022-12-18T05:44:39.581Z,99206.22
2022-12-18T05:47:07.918Z,99212.94
2022-12-18T05:49:36.286Z,99226.22
2022-12-18T05:52:04.659Z,99214.38
2022-12-18T05:54:34.734Z,99226.56
2022-12-18T05:57:03.224Z,99221.72
2022-12-18T05:59:31.726Z,99218.78
2022-12-18T06:02:00.303Z,99261.03
2022-12-18T06:04:34.924Z,99249.72
2022-12-18T06:07:06.419Z,99241.28
2022-12-18T06:09:36.273Z,99212.06
2022-12-18T06:12:08.435Z,99230.81
2022-12-18T06:14:36.823Z,99260.16
2022-12-18T06:17:08.941Z,99249.34
2022-12-18T06:19:37.536Z,99264.34
2022-12-18T06:22:06.215Z,99270.41
2022-12-18T06:24:36.009Z,99268.25
2022-12-18T06:27:04.619Z,99273.91
2022-12-18T06:29:33.034Z,99272.94
2022-12-18T06:32:05.309Z,99249.75
2022-12-18T06:34:33.813Z,99274.97
2022-12-18T06:37:03.443Z,99273.16
2022-12-18T06:39:32.024Z,99267.97
2022-12-18T06:42:05.390Z,99266.81
2022-12-18T06:44:36.763Z,99299.31
2022-12-18T06:47:06.348Z,99311.84
2022-12-18T06:49:34.791Z,99288.53
2022-12-18T06:52:03.236Z,99327.53
2022-12-18T06:54:31.608Z,99323.69
2022-12-18T06:57:01.447Z,99317.06
2022-12-18T06:59:30.299Z,99331.25
2022-12-18T07:01:58.833Z,99315.13
2022-12-18T07:04:30.811Z,99347.72
2022-12-18T07:06:59.576Z,99352.06
2022-12-18T07:09:30.860Z,99318.69
2022-12-18T07:11:59.327Z,99342.44
2022-12-18T07:14:35.546Z,99332.28
2022-12-18T07:17:04.678Z,99315.31
2022-12-18T07:19:35.962Z,99329.19
2022-12-18T07:22:04.629Z,99347.09
2022-12-18T07:24:33.161Z,99387.53
2022-12-18T07:27:01.617Z,99384.66
2022-12-18T07:29:33.128Z,99402.09
2022-12-18T07:32:01.573Z,99392.22
2022-12-18T07:34:30.273Z,99397.84
2022-12-18T07:36:58.975Z,99390.34
2022-12-18T07:39:27.376Z,99378.75
2022-12-18T07:42:09.544Z,99404.50
2022-12-18T07:44:40.505Z,99380.53
2022-12-18T07:47:12.049Z,99397.66
2022-12-18T07:49:41.010Z,99384.66
2022-12-18T07:52:10.892Z,99388.19
2022-12-18T07:54:39.291Z,99402.63
2022-12-18T07:57:27.419Z,99406.72
2022-12-18T08:00:01.859Z,99385.13
2022-12-18T08:02:43.252Z,99400.88
2022-12-18T08:05:11.934Z,99401.56
2022-12-18T08:07:40.312Z,99415.13
2022-12-18T08:10:09.837Z,99400.66
2022-12-18T08:12:38.193Z,99406.19
2022-12-18T08:15:09.231Z,99438.31
2022-12-18T08:17:40.728Z,99423.63
2022-12-18T08:20:10.379Z,99455.53
2022-12-18T08:22:40.091Z,99470.53
2022-12-18T08:25:09.347Z,99472.91
2022-12-18T08:27:37.929Z,99451.38
2022-12-18T08:30:12.177Z,99465.41
2022-12-18T08:32:40.550Z,99453.25
2022-12-18T08:35:18.738Z,99465.34
2022-12-18T08:37:47.366Z,99474.09
2022-12-18T08:40:15.916Z,99464.47
2022-12-18T08:43:01.947Z,99472.00
2022-12-18T08:45:37.703Z,99477.34
2022-12-18T08:48:06.458Z,99468.53
2022-12-18T08:50:37.509Z,99488.88
2022-12-18T08:53:06.009Z,99491.50
2022-12-18T08:55:35.158Z,99483.25
2022-12-18T08:58:06.163Z,99477.13
2022-12-18T09:00:38.971Z,99472.84
2022-12-18T09:03:09.830Z,99486.75
2022-12-18T09:05:40.096Z,99496.75
2022-12-18T09:08:11.517Z,99493.41
2022-12-18T09:10:44.652Z,99486.59
2022-12-18T09:13:14.560Z,99498.81
2022-12-18T09:15:46.551Z,99505.97
2022-12-18T09:18:16.729Z,99473.06
2022-12-18T09:20:45.612Z,99516.38
2022-12-18T09:23:14.665Z,99512.91
2022-12-18T09:25:45.702Z,99522.22
2022-12-18T09:28:21.150Z,99529.19
2022-12-18T09:30:52.201Z,99514.28
2022-12-18T09:33:25.592Z,99550.91
2022-12-18T09:35:57.129Z,99559.38
2022-12-18T09:38:25.556Z,99551.00
2022-12-18T09:40:56.364Z,99556.34
2022-12-18T09:43:31.459Z,99569.00
2022-12-18T09:46:05.953Z,99568.78
2022-12-18T09:48:38.100Z,99567.63
2022-12-18T09:51:13.549Z,99570.72
2022-12-18T09:53:43.941Z,99575.34
2022-12-18T09:56:15.213Z,99569.72
2022-12-18T09:58:49.128Z,99560.41
2022-12-18T10:01:23.939Z,99564.56
2022-12-18T10:03:54.125Z,99584.44
2022-12-18T10:06:24.742Z,99591.00
2022-12-18T10:08:57.109Z,99571.47
2022-12-18T10:11:34.841Z,99572.09
2022-12-18T10:14:09.352Z,99576.59
2022-12-18T10:16:51.319Z,99582.28
2022-12-18T10:19:40.991Z,99603.84
2022-12-18T10:22:18.560Z,99580.94
2022-12-18T10:24:53.580Z,99583.34
2022-12-18T10:27:25.892Z,99590.81
2022-12-18T10:29:59.521Z,99598.50
2022-12-18T10:32:31.212Z,99597.81
2022-12-18T10:35:02.329Z,99585.50
2022-12-18T10:37:32.320Z,99592.28
2022-12-18T10:40:21.866Z,99595.69
2022-12-18T10:43:08.542Z,99607.34
2022-12-18T10:45:36.947Z,99600.84
2022-12-18T10:48:22.540Z,99609.38
2022-12-18T10:53:42.826Z,99615.41
2022-12-18T10:56:14.427Z,99618.47
2022-12-18T10:58:43.375Z,99636.03
2022-12-18T11:01:17.926Z,99650.94
2022-12-18T11:03:49.040Z,99639.34
2022-12-18T11:06:22.776Z,99648.72
2022-12-18T11:09:09.345Z,99641.22
2022-12-18T11:11:41.499Z,99643.94
2022-12-18T11:14:22.424Z,99673.66
2022-12-18T11:19:44.835Z,99660.28
2022-12-18T11:22:22.530Z,99663.13
2022-12-18T11:25:29.629Z,99651.63
2022-12-18T11:27:53.537Z,99677.44
2022-12-18T11:30:30.274Z,99679.81
2022-12-18T11:33:04.791Z,99670.03
2022-12-18T11:35:59.676Z,99690.81
2022-12-18T11:38:36.332Z,99684.72
2022-12-18T11:41:07.861Z,99677.22
2022-12-18T11:43:39.959Z,99684.50
2022-12-18T11:46:17.657Z,99678.94
2022-12-18T11:48:52.545Z,99698.16
2022-12-18T11:51:31.147Z,99696.03
2022-12-18T11:54:02.880Z,99699.47
2022-12-18T11:56:35.475Z,99694.03
2022-12-18T11:59:14.204Z,99695.47
2022-12-18T12:01:54.369Z,99722.34
2022-12-18T12:04:44.759Z,99733.63
2022-12-18T12:07:25.950Z,99742.56
2022-12-18T12:10:03.464Z,99725.47
2022-12-18T12:12:48.984Z,99752.59
2022-12-18T12:15:30.331Z,99748.56
2022-12-18T12:18:11.092Z,99754.41
2022-12-18T12:20:47.331Z,99768.41
2022-12-18T12:23:27.473Z,99697.75
2022-12-18T12:26:03.335Z,99766.13
2022-12-18T12:29:13.419Z,99775.44
2022-12-18T12:31:59.716Z,99766.38
2022-12-18T12:34:34.588Z,99765.09
2022-12-18T12:37:06.432Z,99801.47
2022-12-18T12:39:39.120Z,99772.59
2022-12-18T12:42:30.387Z,99799.56
2022-12-18T12:45:01.364Z,99822.16
2022-12-18T12:47:38.473Z,99788.41
2022-12-18T12:50:14.606Z,99796.06
2022-12-18T12:52:46.873Z,99787.44
2022-12-18T12:58:18.547Z,99847.06
2022-12-18T13:00:56.964Z,99817.56
2022-12-18T13:03:34.206Z,99839.56
2022-12-18T13:06:06.278Z,99853.47
2022-12-18T13:08:54.777Z,99860.50
2022-12-18T13:12:00.273Z,99878.28
2022-12-18T13:14:34.280Z,99885.31
2022-12-18T13:17:30.425Z,99875.69
2022-12-18T13:20:10.874Z,99895.38
2022-12-18T13:22:40.920Z,99880.28
2022-12-18T13:25:32.158Z,99875.28
2022-12-18T13:28:09.494Z,99874.03
2022-12-18T13:30:46.834Z,99886.06
2022-12-18T13:34:24.414Z,99890.66
2022-12-18T13:36:39.715Z,99880.50
2022-12-18T13:39:34.321Z,99904.56
2022-12-18T13:42:59.863Z,99926.94
2022-12-18T13:45:50.404Z,99934.41
2022-12-18T13:48:25.456Z,99938.16
2022-12-18T13:50:57.675Z,99953.72
2022-12-18T13:53:29.763Z,99954.06
2022-12-18T13:55:58.798Z,99942.41
2022-12-18T13:58:27.236Z,99954.94
2022-12-18T14:00:57.860Z,99939.00
2022-12-18T14:03:28.456Z,99991.19
2022-12-18T14:05:59.406Z,99976.34
2022-12-18T14:08:32.028Z,99964.06
2022-12-18T14:11:00.470Z,99973.09
2022-12-18T14:13:31.849Z,99986.38
2022-12-18T14:16:06.230Z,99977.41
2022-12-18T14:18:45.402Z,99972.00
2022-12-18T14:21:22.863Z,99978.25
2022-12-18T14:24:19.040Z,99980.03
2022-12-18T14:26:50.510Z,100016.91
2022-12-18T14:29:29.923Z,99995.47
2022-12-18T14:32:17.967Z,100020.28
2022-12-18T14:34:48.572Z,100029.81
2022-12-18T14:37:22.898Z,100009.75
2022-12-18T14:39:59.405Z,100021.59
2022-12-18T14:42:29.360Z,100044.38
2022-12-18T14:45:43.855Z,100039.03
2022-12-18T14:48:23.657Z,100049.94
2022-12-18T14:51:05.515Z,100029.81
2022-12-18T14:53:40.719Z,100054.75
2022-12-18T14:56:19.238Z,100073.31
2022-12-18T14:58:51.842Z,100078.38
2022-12-18T15:01:22.705Z,100063.38
2022-12-18T15:03:55.107Z,100080.34
2022-12-18T15:06:30.225Z,100067.88
2022-12-18T15:09:01.891Z,100090.28
2022-12-18T15:11:48.435Z,100081.94
2022-12-18T15:14:34.262Z,100091.44
2022-12-18T15:17:05.182Z,100089.50
2022-12-18T15:19:45.852Z,100091.34
2022-12-18T15:22:22.287Z,100089.50
2022-12-18T15:24:53.182Z,100098.41
2022-12-18T15:27:26.656Z,100117.00
2022-12-18T15:30:24.076Z,100114.31
2022-12-18T15:32:56.666Z,100105.00
2022-12-18T15:35:27.189Z,100123.63
2022-12-18T15:37:55.702Z,100094.91
2022-12-18T15:40:25.700Z,100107.13
2022-12-18T15:43:13.781Z,100110.06
2022-12-18T15:45:42.413Z,100117.69
2022-12-18T15:48:22.048Z,100109.34
2022-12-18T15:50:52.571Z,100103.59
2022-12-18T15:53:21.276Z,100102.31
2022-12-18T15:56:06.994Z,100125.50
2022-12-18T15:58:39.927Z,100121.94
2022-12-18T16:01:10.539Z,100129.25
2022-12-18T16:03:42.648Z,100121.31
2022-12-18T16:06:13.288Z,100148.19
2022-12-18T16:08:43.569Z,100137.63
2022-12-18T16:11:40.862Z,100149.84
2022-12-18T16:14:18.762Z,100175.00
2022-12-18T16:16:56.208Z,100156.53
2022-12-18T16:19:27.502Z,100171.09
2022-12-18T16:21:59.531Z,100200.13
2022-12-18T16:24:31.449Z,100217.69
2022-12-18T16:27:01.572Z,100201.16
2022-12-18T16:29:33.098Z,100229.97
2022-12-18T16:32:02.730Z,100217.41
2022-12-18T16:34:38.036Z,100217.84
2022-12-18T16:37:09.459Z,100242.31
2022-12-18T16:39:38.933Z,100217.84
2022-12-18T16:42:13.621Z,100236.50
2022-12-18T16:44:42.370Z,100244.63
2022-12-18T16:47:11.763Z,100221.91
2022-12-18T16:49:45.414Z,100249.91
2022-12-18T16:52:16.258Z,100258.38
2022-12-18T16:54:47.018Z,100244.94
2022-12-18T16:57:17.334Z,100275.16
2022-12-18T16:59:46.752Z,100278.16
2022-12-18T17:02:19.102Z,100279.47
2022-12-18T17:04:51.733Z,100265.91
2022-12-18T17:07:21.609Z,100288.66
2022-12-18T17:09:54.398Z,100265.78
2022-12-18T17:12:23.865Z,100290.44
2022-12-18T17:14:52.605Z,100291.16
2022-12-18T17:17:23.312Z,100297.94
2022-12-18T17:19:52.479Z,100298.03
2022-12-18T17:22:23.492Z,100300.00
2022-12-18T17:24:52.501Z,100319.50
2022-12-18T17:27:21.032Z,100320.75
2022-12-18T17:29:50.684Z,100329.56
2022-12-18T17:32:22.271Z,100319.44
2022-12-18T17:34:51.040Z,100336.09
2022-12-18T17:37:19.408Z,100323.16
2022-12-18T17:39:49.325Z,100341.34
2022-12-18T17:42:17.701Z,100317.03
2022-12-18T17:44:46.576Z,100320.53
2022-12-18T17:47:16.359Z,100347.53
2022-12-18T17:49:45.074Z,100344.56
2022-12-18T17:52:16.555Z,100351.66
2022-12-18T17:54:46.210Z,100346.63
2022-12-18T17:57:19.470Z,100340.28
2022-12-18T17:59:47.920Z,100350.06
2022-12-18T18:02:17.652Z,100364.81
2022-12-18T18:04:51.294Z,100357.19
2022-12-18T18:07:22.786Z,100377.69
2022-12-18T18:09:51.560Z,100365.81
2022-12-18T18:12:40.864Z,100371.81
2022-12-18T18:15:13.431Z,100372.06
2022-12-18T18:17:43.533Z,100388.38
2022-12-18T18:20:22.649Z,100398.84
2022-12-18T18:22:51.724Z,100396.50
2022-12-18T18:25:20.307Z,100397.34
2022-12-18T18:27:58.841Z,100401.50
2022-12-18T18:30:27.627Z,100415.84
2022-12-18T18:32:59.929Z,100424.28
2022-12-18T18:35:53.368Z,100436.00
2022-12-18T18:38:19.830Z,100439.16
2022-12-18T18:40:53.527Z,100455.59
2022-12-18T18:43:24.828Z,100439.44
2022-12-18T18:45:58.878Z,100445.44
2022-12-18T18:48:28.764Z,100451.22
2022-12-18T18:51:04.414Z,100457.88
2022-12-18T18:53:33.684Z,100460.63
2022-12-18T18:56:45.606Z,100447.56
2022-12-18T18:58:56.307Z,100475.56
2022-12-18T19:01:28.457Z,100445.94
2022-12-18T19:04:07.038Z,100477.94
2022-12-18T19:06:36.244Z,100455.38
2022-12-18T19:09:09.245Z,100485.09
2022-12-18T19:11:55.715Z,100511.09
2022-12-18T19:14:28.350Z,100495.03
2022-12-18T19:16:59.376Z,100494.41
2022-12-18T19:19:30.304Z,100498.56
2022-12-18T19:21:58.779Z,100510.47
2022-12-18T19:24:27.862Z,100506.31
2022-12-18T19:26:57.922Z,100524.41
2022-12-18T19:29:30.821Z,100501.41
2022-12-18T19:31:59.642Z,100532.28
2022-12-18T19:34:28.062Z,100523.16
2022-12-18T19:37:00.122Z,100498.63
2022-12-18T19:39:31.454Z,100497.78
2022-12-18T19:42:00.046Z,100545.69
2022-12-18T19:44:32.486Z,100542.94
2022-12-18T19:47:02.065Z,100548.94
2022-12-18T19:49:34.057Z,100565.97
2022-12-18T19:52:05.549Z,100554.19
2022-12-18T19:54:36.380Z,100554.19
2022-12-18T19:57:11.761Z,100551.66
2022-12-18T19:59:44.223Z,100570.88
2022-12-18T20:02:14.992Z,100550.41
2022-12-18T20:04:43.690Z,100545.53
2022-12-18T20:07:12.173Z,100562.19
2022-12-18T20:09:40.825Z,100576.16
2022-12-18T20:12:12.456Z,100585.09
2022-12-18T20:14:45.345Z,100566.69
2022-12-18T20:17:14.109Z,100580.03
2022-12-18T20:19:46.616Z,100563.94
2022-12-18T20:22:18.277Z,100563.50
2022-12-18T20:24:46.708Z,100593.34
2022-12-18T20:27:19.593Z,100570.94
2022-12-18T20:29:52.544Z,100590.19
2022-12-18T20:32:21.248Z,100563.81
2022-12-18T20:34:49.805Z,100603.75
2022-12-18T20:37:18.577Z,100607.41
2022-12-18T20:39:48.596Z,100594.59
2022-12-18T20:42:17.175Z,100589.69
2022-12-18T20:44:47.042Z,100585.91
2022-12-18T20:47:17.034Z,100591.59
2022-12-18T20:49:45.869Z,100600.66
2022-12-18T20:52:14.540Z,100589.16
2022-12-18T20:54:43.003Z,100612.00
2022-12-18T20:57:11.671Z,100590.63
2022-12-18T20:59:46.239Z,100620.84
2022-12-18T21:02:21.131Z,100614.94
2022-12-18T21:04:51.842Z,100626.38
2022-12-18T21:07:22.041Z,100619.78
2022-12-18T21:09:50.520Z,100622.91
2022-12-18T21:12:44.022Z,100617.16
2022-12-18T21:15:22.857Z,100621.91
2022-12-18T21:17:56.722Z,100623.59
2022-12-18T21:20:26.485Z,100619.41
2022-12-18T21:22:55.012Z,100622.53
2022-12-18T21:25:27.586Z,100623.28
2022-12-18T21:27:55.977Z,100623.72
2022-12-18T21:30:28.621Z,100620.97
2022-12-18T21:32:58.517Z,100623.81
2022-12-18T21:35:27.163Z,100610.59
2022-12-18T21:37:58.336Z,100640.06
2022-12-18T21:40:29.350Z,100637.19
2022-12-18T21:43:17.880Z,100629.59
2022-12-18T21:45:46.438Z,100613.91
2022-12-18T21:48:18.072Z,100645.69
2022-12-18T21:50:46.622Z,100638.63
2022-12-18T21:53:16.574Z,100643.66
2022-12-18T21:55:45.675Z,100655.28
2022-12-18T21:58:14.122Z,100650.41
2022-12-18T22:00:46.998Z,100656.78
2022-12-18T22:03:20.224Z,100662.38
2022-12-18T22:05:52.000Z,100654.78
2022-12-18T22:08:43.429Z,100668.59
2022-12-18T22:11:13.876Z,100674.91
2022-12-18T22:13:43.557Z,100651.69
2022-12-18T22:16:11.954Z,100668.97
2022-12-18T22:18:41.739Z,100680.34
2022-12-18T22:21:29.324Z,100661.66
2022-12-18T22:23:59.739Z,100656.03
2022-12-18T22:26:31.846Z,100649.78
2022-12-18T22:29:23.961Z,100658.13
2022-12-18T22:31:52.514Z,100676.69
2022-12-18T22:34:23.335Z,100671.97
2022-12-18T22:36:52.215Z,100671.22
2022-12-18T22:39:22.067Z,100680.63
2022-12-18T22:41:51.043Z,100685.34
2022-12-18T22:44:19.491Z,100671.84
2022-12-18T22:46:59.924Z,100679.91
2022-12-18T22:49:36.174Z,100682.13
2022-12-18T22:52:04.760Z,100682.13
2022-12-18T22:54:33.557Z,100681.50
2022-12-18T22:57:02.212Z,100687.69
2022-12-18T22:59:31.568Z,100683.75
2022-12-18T23:01:59.997Z,100694.47
2022-12-18T23:04:36.617Z,100702.84
2022-12-18T23:07:09.055Z,100695.25
2022-12-18T23:09:40.795Z,100701.06
2022-12-18T23:12:10.912Z,100710.38
2022-12-18T23:14:39.431Z,100697.47
2022-12-18T23:17:07.821Z,100710.09
2022-12-18T23:19:42.780Z,100699.78
2022-12-18T23:22:15.476Z,100704.47
2022-12-18T23:24:44.297Z,100705.22
2022-12-18T23:27:15.310Z,100706.16
2022-12-18T23:29:44.068Z,100704.66
2022-12-18T23:32:14.064Z,100693.84
2022-12-18T23:34:42.636Z,100715.72
2022-12-18T23:37:11.116Z,100712.94
2022-12-18T23:39:40.804Z,100722.63
2022-12-18T23:42:09.220Z,100721.94
2022-12-18T23:44:38.808Z,100735.44
2022-12-18T23:47:08.104Z,100741.78
2022-12-18T23:49:44.283Z,100723.09
2022-12-18T23:52:15.758Z,100748.47
2022-12-18T23:54:48.046Z,100744.50
2022-12-18T23:57:17.633Z,100745.25
2022-12-18T23:59:50.783Z,100751.06
